sensor_id;sensor_type;location;lat;lon;timestamp;P1;durP1;ratioP1;P2;durP2;ratioP2
6185;SDS011;3126;52.738;8.316;2022-08-03T00:03:55;7.85;;;4.05;;
6185;SDS011;3126;52.738;8.316;2022-08-03T00:08:56;5.32;;;4.68;;
6185;SDS011;3126;52.738;8.316;2022-08-03T00:13:56;5.43;;;4.40;;
6185;SDS011;3126;52.738;8.316;2022-08-03T00:18:57;4.57;;;4.18;;
6185;SDS011;3126;52.738;8.316;2022-08-03T00:23:57;5.20;;;4.70;;
6185;SDS011;3126;52.738;8.316;2022-08-03T00:28:58;5.20;;;4.70;;
6185;SDS011;3126;52.738;8.316;2022-08-03T00:33:58;5.95;;;4.60;;
6185;SDS011;3126;52.738;8.316;2022-08-03T00:38:59;6.70;;;5.25;;
6185;SDS011;3126;52.738;8.316;2022-08-03T00:44:00;5.60;;;5.10;;
6185;SDS011;3126;52.738;8.316;2022-08-03T00:49:00;5.55;;;4.78;;
6185;SDS011;3126;52.738;8.316;2022-08-03T00:54:01;6.78;;;5.55;;
6185;SDS011;3126;52.738;8.316;2022-08-03T00:59:02;7.07;;;6.07;;
6185;SDS011;3126;52.738;8.316;2022-08-03T01:04:03;8.00;;;6.00;;
6185;SDS011;3126;52.738;8.316;2022-08-03T01:09:29;7.10;;;6.40;;
6185;SDS011;3126;52.738;8.316;2022-08-03T01:14:49;7.13;;;6.43;;
6185;SDS011;3126;52.738;8.316;2022-08-03T01:20:07;9.43;;;6.95;;
6185;SDS011;3126;52.738;8.316;2022-08-03T01:30:41;8.77;;;6.90;;
6185;SDS011;3126;52.738;8.316;2022-08-03T01:35:45;8.98;;;7.32;;
6185;SDS011;3126;52.738;8.316;2022-08-03T01:40:52;7.40;;;6.68;;
6185;SDS011;3126;52.738;8.316;2022-08-03T01:45:54;7.70;;;6.88;;
6185;SDS011;3126;52.738;8.316;2022-08-03T01:50:56;8.40;;;7.38;;
6185;SDS011;3126;52.738;8.316;2022-08-03T01:55:58;9.80;;;8.15;;
6185;SDS011;3126;52.738;8.316;2022-08-03T02:01:02;8.27;;;7.40;;
6185;SDS011;3126;52.738;8.316;2022-08-03T02:06:04;8.35;;;6.53;;
6185;SDS011;3126;52.738;8.316;2022-08-03T02:11:05;8.60;;;7.40;;
6185;SDS011;3126;52.738;8.316;2022-08-03T02:16:06;8.75;;;7.35;;
6185;SDS011;3126;52.738;8.316;2022-08-03T02:21:08;9.10;;;7.65;;
6185;SDS011;3126;52.738;8.316;2022-08-03T02:26:11;8.77;;;7.28;;
6185;SDS011;3126;52.738;8.316;2022-08-03T02:31:15;10.00;;;7.72;;
6185;SDS011;3126;52.738;8.316;2022-08-03T02:36:18;9.43;;;7.57;;
6185;SDS011;3126;52.738;8.316;2022-08-03T02:41:23;9.10;;;7.63;;
6185;SDS011;3126;52.738;8.316;2022-08-03T02:46:27;11.63;;;7.78;;
6185;SDS011;3126;52.738;8.316;2022-08-03T02:51:31;10.18;;;7.80;;
6185;SDS011;3126;52.738;8.316;2022-08-03T03:01:34;8.00;;;7.20;;
6185;SDS011;3126;52.738;8.316;2022-08-03T03:06:35;9.95;;;7.45;;
6185;SDS011;3126;52.738;8.316;2022-08-03T03:11:37;8.15;;;7.18;;
6185;SDS011;3126;52.738;8.316;2022-08-03T03:16:38;8.93;;;7.68;;
6185;SDS011;3126;52.738;8.316;2022-08-03T03:21:40;7.97;;;7.18;;
6185;SDS011;3126;52.738;8.316;2022-08-03T03:26:42;9.13;;;7.32;;
6185;SDS011;3126;52.738;8.316;2022-08-03T03:31:44;7.68;;;6.85;;
6185;SDS011;3126;52.738;8.316;2022-08-03T03:36:45;9.02;;;7.82;;
6185;SDS011;3126;52.738;8.316;2022-08-03T03:41:46;8.80;;;7.28;;
6185;SDS011;3126;52.738;8.316;2022-08-03T03:46:47;9.48;;;7.25;;
6185;SDS011;3126;52.738;8.316;2022-08-03T03:51:50;8.15;;;7.18;;
6185;SDS011;3126;52.738;8.316;2022-08-03T03:56:52;10.55;;;6.78;;
6185;SDS011;3126;52.738;8.316;2022-08-03T04:01:53;8.75;;;7.35;;
6185;SDS011;3126;52.738;8.316;2022-08-03T04:06:54;9.57;;;7.18;;
6185;SDS011;3126;52.738;8.316;2022-08-03T04:12:13;7.95;;;6.88;;
6185;SDS011;3126;52.738;8.316;2022-08-03T04:17:16;8.43;;;7.28;;
6185;SDS011;3126;52.738;8.316;2022-08-03T04:22:18;12.13;;;7.38;;
6185;SDS011;3126;52.738;8.316;2022-08-03T04:27:22;9.05;;;8.07;;
6185;SDS011;3126;52.738;8.316;2022-08-03T04:32:25;8.43;;;7.53;;
6185;SDS011;3126;52.738;8.316;2022-08-03T04:37:47;8.13;;;7.15;;
6185;SDS011;3126;52.738;8.316;2022-08-03T04:42:48;10.32;;;7.95;;
6185;SDS011;3126;52.738;8.316;2022-08-03T04:47:50;8.70;;;7.80;;
6185;SDS011;3126;52.738;8.316;2022-08-03T04:52:51;9.45;;;8.50;;
6185;SDS011;3126;52.738;8.316;2022-08-03T04:57:52;10.15;;;9.15;;
6185;SDS011;3126;52.738;8.316;2022-08-03T05:02:53;11.07;;;9.93;;
6185;SDS011;3126;52.738;8.316;2022-08-03T05:07:54;14.55;;;10.50;;
6185;SDS011;3126;52.738;8.316;2022-08-03T05:12:55;16.13;;;11.82;;
6185;SDS011;3126;52.738;8.316;2022-08-03T05:17:56;14.63;;;11.38;;
6185;SDS011;3126;52.738;8.316;2022-08-03T05:22:57;11.25;;;9.95;;
6185;SDS011;3126;52.738;8.316;2022-08-03T05:28:00;9.00;;;7.03;;
6185;SDS011;3126;52.738;8.316;2022-08-03T05:33:01;7.68;;;6.10;;
6185;SDS011;3126;52.738;8.316;2022-08-03T05:38:02;7.25;;;5.70;;
6185;SDS011;3126;52.738;8.316;2022-08-03T05:43:03;6.70;;;5.40;;
6185;SDS011;3126;52.738;8.316;2022-08-03T05:48:04;7.68;;;5.25;;
6185;SDS011;3126;52.738;8.316;2022-08-03T05:53:05;8.93;;;5.93;;
6185;SDS011;3126;52.738;8.316;2022-08-03T05:58:05;8.10;;;6.00;;
6185;SDS011;3126;52.738;8.316;2022-08-03T06:03:06;7.95;;;6.05;;
6185;SDS011;3126;52.738;8.316;2022-08-03T06:08:07;6.07;;;5.47;;
6185;SDS011;3126;52.738;8.316;2022-08-03T06:13:08;5.75;;;5.25;;
6185;SDS011;3126;52.738;8.316;2022-08-03T06:18:09;8.02;;;5.72;;
6185;SDS011;3126;52.738;8.316;2022-08-03T06:23:10;11.82;;;7.80;;
6185;SDS011;3126;52.738;8.316;2022-08-03T06:28:11;10.77;;;7.32;;
6185;SDS011;3126;52.738;8.316;2022-08-03T06:33:17;12.48;;;6.97;;
6185;SDS011;3126;52.738;8.316;2022-08-03T06:38:18;16.23;;;9.48;;
6185;SDS011;3126;52.738;8.316;2022-08-03T06:43:19;14.45;;;9.27;;
6185;SDS011;3126;52.738;8.316;2022-08-03T06:48:20;11.00;;;7.72;;
6185;SDS011;3126;52.738;8.316;2022-08-03T06:53:21;12.07;;;6.95;;
6185;SDS011;3126;52.738;8.316;2022-08-03T06:58:22;15.48;;;8.02;;
6185;SDS011;3126;52.738;8.316;2022-08-03T07:03:23;13.07;;;7.20;;
6185;SDS011;3126;52.738;8.316;2022-08-03T07:08:24;11.45;;;6.40;;
6185;SDS011;3126;52.738;8.316;2022-08-03T07:13:25;9.55;;;5.97;;
6185;SDS011;3126;52.738;8.316;2022-08-03T07:18:26;10.63;;;6.60;;
6185;SDS011;3126;52.738;8.316;2022-08-03T07:23:27;12.48;;;6.10;;
6185;SDS011;3126;52.738;8.316;2022-08-03T07:28:28;6.80;;;4.90;;
6185;SDS011;3126;52.738;8.316;2022-08-03T07:33:29;6.22;;;4.18;;
6185;SDS011;3126;52.738;8.316;2022-08-03T07:38:30;7.43;;;4.63;;
6185;SDS011;3126;52.738;8.316;2022-08-03T07:43:31;6.88;;;4.32;;
6185;SDS011;3126;52.738;8.316;2022-08-03T07:48:32;6.22;;;3.70;;
6185;SDS011;3126;52.738;8.316;2022-08-03T07:53:33;9.63;;;5.10;;
6185;SDS011;3126;52.738;8.316;2022-08-03T07:58:34;7.68;;;3.85;;
6185;SDS011;3126;52.738;8.316;2022-08-03T08:03:36;5.72;;;4.43;;
6185;SDS011;3126;52.738;8.316;2022-08-03T08:08:37;5.53;;;4.00;;
6185;SDS011;3126;52.738;8.316;2022-08-03T08:13:38;5.45;;;3.30;;
6185;SDS011;3126;52.738;8.316;2022-08-03T08:18:39;8.40;;;3.50;;
6185;SDS011;3126;52.738;8.316;2022-08-03T08:23:40;5.55;;;2.90;;
6185;SDS011;3126;52.738;8.316;2022-08-03T08:28:42;4.78;;;3.28;;
6185;SDS011;3126;52.738;8.316;2022-08-03T08:33:43;3.45;;;2.40;;
6185;SDS011;3126;52.738;8.316;2022-08-03T08:38:44;3.17;;;2.38;;
6185;SDS011;3126;52.738;8.316;2022-08-03T08:43:45;4.80;;;3.08;;
6185;SDS011;3126;52.738;8.316;2022-08-03T08:48:46;4.43;;;2.17;;
6185;SDS011;3126;52.738;8.316;2022-08-03T08:53:50;3.30;;;1.90;;
6185;SDS011;3126;52.738;8.316;2022-08-03T08:58:57;6.72;;;2.53;;
6185;SDS011;3126;52.738;8.316;2022-08-03T09:03:58;6.45;;;2.28;;
6185;SDS011;3126;52.738;8.316;2022-08-03T09:08:58;4.93;;;2.13;;
6185;SDS011;3126;52.738;8.316;2022-08-03T09:13:59;7.95;;;2.38;;
6185;SDS011;3126;52.738;8.316;2022-08-03T09:19:09;5.07;;;2.50;;
6185;SDS011;3126;52.738;8.316;2022-08-03T09:24:12;3.45;;;2.08;;
6185;SDS011;3126;52.738;8.316;2022-08-03T09:34:19;4.40;;;1.98;;
6185;SDS011;3126;52.738;8.316;2022-08-03T09:39:25;5.15;;;1.77;;
6185;SDS011;3126;52.738;8.316;2022-08-03T09:44:34;4.55;;;2.33;;
6185;SDS011;3126;52.738;8.316;2022-08-03T09:49:36;4.72;;;1.75;;
6185;SDS011;3126;52.738;8.316;2022-08-03T09:54:37;4.10;;;2.13;;
6185;SDS011;3126;52.738;8.316;2022-08-03T09:59:38;4.90;;;2.13;;
6185;SDS011;3126;52.738;8.316;2022-08-03T10:09:57;3.58;;;2.13;;
6185;SDS011;3126;52.738;8.316;2022-08-03T10:15:02;5.53;;;2.55;;
6185;SDS011;3126;52.738;8.316;2022-08-03T10:20:03;7.22;;;2.40;;
6185;SDS011;3126;52.738;8.316;2022-08-03T10:25:06;5.32;;;1.95;;
6185;SDS011;3126;52.738;8.316;2022-08-03T10:30:09;6.45;;;2.38;;
6185;SDS011;3126;52.738;8.316;2022-08-03T10:35:14;6.55;;;2.88;;
6185;SDS011;3126;52.738;8.316;2022-08-03T10:40:17;5.10;;;2.53;;
6185;SDS011;3126;52.738;8.316;2022-08-03T10:45:25;4.50;;;2.53;;
6185;SDS011;3126;52.738;8.316;2022-08-03T10:50:26;4.57;;;1.83;;
6185;SDS011;3126;52.738;8.316;2022-08-03T10:55:28;7.38;;;2.40;;
6185;SDS011;3126;52.738;8.316;2022-08-03T11:00:48;5.35;;;1.92;;
6185;SDS011;3126;52.738;8.316;2022-08-03T11:05:49;2.05;;;1.80;;
6185;SDS011;3126;52.738;8.316;2022-08-03T11:10:54;4.50;;;1.58;;
6185;SDS011;3126;52.738;8.316;2022-08-03T11:16:00;5.47;;;2.35;;
6185;SDS011;3126;52.738;8.316;2022-08-03T11:21:03;4.05;;;2.00;;
6185;SDS011;3126;52.738;8.316;2022-08-03T11:26:09;2.60;;;2.13;;
6185;SDS011;3126;52.738;8.316;2022-08-03T11:36:23;5.57;;;2.13;;
6185;SDS011;3126;52.738;8.316;2022-08-03T11:41:33;6.85;;;2.13;;
6185;SDS011;3126;52.738;8.316;2022-08-03T11:46:36;6.22;;;2.33;;
6185;SDS011;3126;52.738;8.316;2022-08-03T11:51:37;3.47;;;1.90;;
6185;SDS011;3126;52.738;8.316;2022-08-03T11:56:48;7.13;;;2.15;;
6185;SDS011;3126;52.738;8.316;2022-08-03T12:01:50;6.75;;;2.20;;
6185;SDS011;3126;52.738;8.316;2022-08-03T12:06:57;4.65;;;1.58;;
6185;SDS011;3126;52.738;8.316;2022-08-03T12:11:59;6.13;;;2.20;;
6185;SDS011;3126;52.738;8.316;2022-08-03T12:16:59;4.93;;;2.15;;
6185;SDS011;3126;52.738;8.316;2022-08-03T12:22:00;4.78;;;1.90;;
6185;SDS011;3126;52.738;8.316;2022-08-03T12:27:00;5.10;;;2.10;;
6185;SDS011;3126;52.738;8.316;2022-08-03T12:32:01;4.35;;;2.03;;
6185;SDS011;3126;52.738;8.316;2022-08-03T12:37:03;5.03;;;2.47;;
6185;SDS011;3126;52.738;8.316;2022-08-03T12:42:04;5.07;;;1.70;;
6185;SDS011;3126;52.738;8.316;2022-08-03T12:47:05;5.65;;;2.53;;
6185;SDS011;3126;52.738;8.316;2022-08-03T12:52:06;5.38;;;2.15;;
6185;SDS011;3126;52.738;8.316;2022-08-03T12:57:10;6.15;;;2.10;;
6185;SDS011;3126;52.738;8.316;2022-08-03T13:02:18;5.15;;;1.80;;
6185;SDS011;3126;52.738;8.316;2022-08-03T13:07:23;7.15;;;1.80;;
6185;SDS011;3126;52.738;8.316;2022-08-03T13:12:24;4.97;;;1.90;;
6185;SDS011;3126;52.738;8.316;2022-08-03T13:17:26;6.03;;;1.83;;
6185;SDS011;3126;52.738;8.316;2022-08-03T13:22:27;3.72;;;1.90;;
6185;SDS011;3126;52.738;8.316;2022-08-03T13:27:32;5.88;;;2.03;;
6185;SDS011;3126;52.738;8.316;2022-08-03T13:32:33;6.32;;;1.98;;
6185;SDS011;3126;52.738;8.316;2022-08-03T13:37:34;5.10;;;1.63;;
6185;SDS011;3126;52.738;8.316;2022-08-03T13:42:35;6.68;;;2.13;;
6185;SDS011;3126;52.738;8.316;2022-08-03T13:47:36;4.82;;;1.80;;
6185;SDS011;3126;52.738;8.316;2022-08-03T13:52:37;6.95;;;1.95;;
6185;SDS011;3126;52.738;8.316;2022-08-03T13:57:37;7.55;;;1.83;;
6185;SDS011;3126;52.738;8.316;2022-08-03T14:02:38;8.40;;;2.22;;
6185;SDS011;3126;52.738;8.316;2022-08-03T14:07:38;7.32;;;2.00;;
6185;SDS011;3126;52.738;8.316;2022-08-03T14:12:39;7.28;;;2.00;;
6185;SDS011;3126;52.738;8.316;2022-08-03T14:17:39;7.43;;;1.88;;
6185;SDS011;3126;52.738;8.316;2022-08-03T14:22:40;6.47;;;1.88;;
6185;SDS011;3126;52.738;8.316;2022-08-03T14:27:40;8.15;;;2.22;;
6185;SDS011;3126;52.738;8.316;2022-08-03T14:32:41;7.22;;;1.92;;
6185;SDS011;3126;52.738;8.316;2022-08-03T14:37:42;8.10;;;1.90;;
6185;SDS011;3126;52.738;8.316;2022-08-03T14:42:42;7.25;;;2.00;;
6185;SDS011;3126;52.738;8.316;2022-08-03T14:47:43;5.78;;;1.70;;
6185;SDS011;3126;52.738;8.316;2022-08-03T14:52:43;5.00;;;1.75;;
6185;SDS011;3126;52.738;8.316;2022-08-03T14:57:44;8.88;;;2.25;;
6185;SDS011;3126;52.738;8.316;2022-08-03T15:02:44;9.82;;;2.05;;
6185;SDS011;3126;52.738;8.316;2022-08-03T15:07:45;7.20;;;2.42;;
6185;SDS011;3126;52.738;8.316;2022-08-03T15:12:45;6.20;;;2.05;;
6185;SDS011;3126;52.738;8.316;2022-08-03T15:17:46;7.18;;;1.77;;
6185;SDS011;3126;52.738;8.316;2022-08-03T15:22:47;6.25;;;1.75;;
6185;SDS011;3126;52.738;8.316;2022-08-03T15:27:47;7.57;;;2.28;;
6185;SDS011;3126;52.738;8.316;2022-08-03T15:32:48;4.40;;;1.70;;
6185;SDS011;3126;52.738;8.316;2022-08-03T15:37:48;10.30;;;2.65;;
6185;SDS011;3126;52.738;8.316;2022-08-03T15:42:49;9.00;;;1.67;;
6185;SDS011;3126;52.738;8.316;2022-08-03T15:47:49;7.28;;;1.80;;
6185;SDS011;3126;52.738;8.316;2022-08-03T15:52:50;6.22;;;1.85;;
6185;SDS011;3126;52.738;8.316;2022-08-03T15:57:51;10.57;;;2.03;;
6185;SDS011;3126;52.738;8.316;2022-08-03T16:02:51;8.18;;;2.10;;
6185;SDS011;3126;52.738;8.316;2022-08-03T16:07:52;8.75;;;2.35;;
6185;SDS011;3126;52.738;8.316;2022-08-03T16:12:52;9.65;;;2.00;;
6185;SDS011;3126;52.738;8.316;2022-08-03T16:17:53;5.80;;;1.90;;
6185;SDS011;3126;52.738;8.316;2022-08-03T16:22:54;9.18;;;2.25;;
6185;SDS011;3126;52.738;8.316;2022-08-03T16:27:54;10.75;;;2.70;;
6185;SDS011;3126;52.738;8.316;2022-08-03T16:32:55;7.72;;;2.55;;
6185;SDS011;3126;52.738;8.316;2022-08-03T16:37:56;8.45;;;2.28;;
6185;SDS011;3126;52.738;8.316;2022-08-03T16:42:56;8.90;;;2.90;;
6185;SDS011;3126;52.738;8.316;2022-08-03T16:47:57;6.32;;;2.60;;
6185;SDS011;3126;52.738;8.316;2022-08-03T16:52:58;9.25;;;1.92;;
6185;SDS011;3126;52.738;8.316;2022-08-03T16:57:58;7.82;;;2.10;;
6185;SDS011;3126;52.738;8.316;2022-08-03T17:03:02;7.30;;;2.33;;
6185;SDS011;3126;52.738;8.316;2022-08-03T17:08:03;10.10;;;2.47;;
6185;SDS011;3126;52.738;8.316;2022-08-03T17:13:04;6.13;;;2.08;;
6185;SDS011;3126;52.738;8.316;2022-08-03T17:18:07;5.72;;;2.08;;
6185;SDS011;3126;52.738;8.316;2022-08-03T17:23:14;9.23;;;2.03;;
6185;SDS011;3126;52.738;8.316;2022-08-03T17:28:16;7.50;;;2.45;;
6185;SDS011;3126;52.738;8.316;2022-08-03T17:33:17;8.55;;;2.20;;
6185;SDS011;3126;52.738;8.316;2022-08-03T17:38:19;7.72;;;2.00;;
6185;SDS011;3126;52.738;8.316;2022-08-03T17:43:20;8.30;;;2.17;;
6185;SDS011;3126;52.738;8.316;2022-08-03T17:48:21;5.53;;;1.80;;
6185;SDS011;3126;52.738;8.316;2022-08-03T17:53:23;8.32;;;2.10;;
6185;SDS011;3126;52.738;8.316;2022-08-03T18:03:46;8.23;;;2.40;;
6185;SDS011;3126;52.738;8.316;2022-08-03T18:08:50;7.57;;;2.83;;
6185;SDS011;3126;52.738;8.316;2022-08-03T18:18:52;10.13;;;2.53;;
6185;SDS011;3126;52.738;8.316;2022-08-03T18:23:56;7.68;;;2.15;;
6185;SDS011;3126;52.738;8.316;2022-08-03T18:28:57;7.80;;;2.10;;
6185;SDS011;3126;52.738;8.316;2022-08-03T18:33:58;9.30;;;2.55;;
6185;SDS011;3126;52.738;8.316;2022-08-03T18:38:59;8.77;;;2.78;;
6185;SDS011;3126;52.738;8.316;2022-08-03T18:44:02;9.07;;;2.30;;
6185;SDS011;3126;52.738;8.316;2022-08-03T18:49:10;11.88;;;2.83;;
6185;SDS011;3126;52.738;8.316;2022-08-03T18:54:19;6.50;;;2.33;;
6185;SDS011;3126;52.738;8.316;2022-08-03T19:15:00;10.80;;;2.28;;
6185;SDS011;3126;52.738;8.316;2022-08-03T19:20:03;5.95;;;2.25;;
6185;SDS011;3126;52.738;8.316;2022-08-03T19:25:05;10.75;;;2.28;;
6185;SDS011;3126;52.738;8.316;2022-08-03T19:30:07;8.68;;;2.58;;
6185;SDS011;3126;52.738;8.316;2022-08-03T19:35:08;11.60;;;2.67;;
6185;SDS011;3126;52.738;8.316;2022-08-03T19:40:09;9.32;;;2.70;;
6185;SDS011;3126;52.738;8.316;2022-08-03T19:45:13;6.50;;;2.50;;
6185;SDS011;3126;52.738;8.316;2022-08-03T19:50:15;10.85;;;2.90;;
6185;SDS011;3126;52.738;8.316;2022-08-03T19:55:18;10.00;;;2.58;;
6185;SDS011;3126;52.738;8.316;2022-08-03T20:00:20;7.95;;;2.42;;
6185;SDS011;3126;52.738;8.316;2022-08-03T20:05:21;7.72;;;2.60;;
6185;SDS011;3126;52.738;8.316;2022-08-03T20:10:22;12.35;;;2.95;;
6185;SDS011;3126;52.738;8.316;2022-08-03T20:15:23;9.18;;;2.45;;
6185;SDS011;3126;52.738;8.316;2022-08-03T20:20:27;15.52;;;3.08;;
6185;SDS011;3126;52.738;8.316;2022-08-03T20:25:29;9.55;;;2.88;;
6185;SDS011;3126;52.738;8.316;2022-08-03T20:30:30;10.13;;;3.30;;
6185;SDS011;3126;52.738;8.316;2022-08-03T20:35:32;7.72;;;3.45;;
6185;SDS011;3126;52.738;8.316;2022-08-03T20:40:33;10.68;;;4.00;;
6185;SDS011;3126;52.738;8.316;2022-08-03T20:45:34;12.13;;;4.82;;
6185;SDS011;3126;52.738;8.316;2022-08-03T20:50:38;12.23;;;5.50;;
6185;SDS011;3126;52.738;8.316;2022-08-03T20:55:40;11.50;;;5.00;;
6185;SDS011;3126;52.738;8.316;2022-08-03T21:00:42;11.70;;;5.50;;
6185;SDS011;3126;52.738;8.316;2022-08-03T21:05:44;16.92;;;6.20;;
6185;SDS011;3126;52.738;8.316;2022-08-03T21:10:48;15.05;;;6.70;;
6185;SDS011;3126;52.738;8.316;2022-08-03T21:15:52;17.60;;;6.85;;
6185;SDS011;3126;52.738;8.316;2022-08-03T21:20:53;17.65;;;8.10;;
6185;SDS011;3126;52.738;8.316;2022-08-03T21:25:58;17.48;;;9.18;;
6185;SDS011;3126;52.738;8.316;2022-08-03T21:31:00;18.25;;;8.75;;
6185;SDS011;3126;52.738;8.316;2022-08-03T21:36:01;21.27;;;8.88;;
6185;SDS011;3126;52.738;8.316;2022-08-03T21:41:02;16.55;;;9.15;;
6185;SDS011;3126;52.738;8.316;2022-08-03T21:46:04;18.70;;;9.25;;
6185;SDS011;3126;52.738;8.316;2022-08-03T21:51:07;16.83;;;9.00;;
6185;SDS011;3126;52.738;8.316;2022-08-03T21:56:09;17.85;;;10.18;;
6185;SDS011;3126;52.738;8.316;2022-08-03T22:01:11;18.70;;;10.70;;
6185;SDS011;3126;52.738;8.316;2022-08-03T22:06:13;26.05;;;11.00;;
6185;SDS011;3126;52.738;8.316;2022-08-03T22:11:14;21.90;;;11.25;;
6185;SDS011;3126;52.738;8.316;2022-08-03T22:16:15;19.20;;;11.00;;
6185;SDS011;3126;52.738;8.316;2022-08-03T22:21:16;20.45;;;11.20;;
6185;SDS011;3126;52.738;8.316;2022-08-03T22:26:19;26.70;;;12.93;;
6185;SDS011;3126;52.738;8.316;2022-08-03T22:31:22;23.52;;;12.88;;
6185;SDS011;3126;52.738;8.316;2022-08-03T22:36:23;25.70;;;12.43;;
6185;SDS011;3126;52.738;8.316;2022-08-03T22:41:25;22.58;;;13.20;;
6185;SDS011;3126;52.738;8.316;2022-08-03T22:46:28;22.77;;;13.68;;
6185;SDS011;3126;52.738;8.316;2022-08-03T22:51:31;27.83;;;13.65;;
6185;SDS011;3126;52.738;8.316;2022-08-03T22:56:35;25.35;;;13.23;;
6185;SDS011;3126;52.738;8.316;2022-08-03T23:01:37;23.45;;;12.80;;
6185;SDS011;3126;52.738;8.316;2022-08-03T23:06:41;21.73;;;12.45;;
6185;SDS011;3126;52.738;8.316;2022-08-03T23:11:44;23.05;;;12.27;;
6185;SDS011;3126;52.738;8.316;2022-08-03T23:16:46;21.90;;;13.10;;
6185;SDS011;3126;52.738;8.316;2022-08-03T23:21:46;26.55;;;13.95;;
6185;SDS011;3126;52.738;8.316;2022-08-03T23:26:48;22.23;;;13.15;;
6185;SDS011;3126;52.738;8.316;2022-08-03T23:31:50;23.77;;;13.68;;
6185;SDS011;3126;52.738;8.316;2022-08-03T23:36:52;27.95;;;14.75;;
6185;SDS011;3126;52.738;8.316;2022-08-03T23:41:53;18.77;;;12.93;;
6185;SDS011;3126;52.738;8.316;2022-08-03T23:46:54;25.58;;;13.15;;
6185;SDS011;3126;52.738;8.316;2022-08-03T23:51:57;22.52;;;13.70;;
